Terminal Aerodrome Forecast
Issued by NWS

Home | Current Version | Previous Version | Text Only | Print | Product List | Glossary On
Versions: 1 2 3 4 5 6 7 8 9 10 11 12 13 14 15 16 17 18 19 20 21 22 23 24 25
000
FTUS43 KDLH 191100
TAFBRD
TAF
KBRD 191134Z 1912/2012 VRB05KT 3SM -RA SCT008 BKN010
     FM191400 15009KT 3SM -DZ BR OVC012
     FM191700 27011KT 5SM -SHRA BKN025
     FM192000 30013G20KT P6SM VCSH BKN025
     FM192200 30014G21KT P6SM SCT025
     FM200200 31008KT P6SM SCT080=

USA.gov is the U.S. government's official web portal to all federal, state and local government web resources and services.